sensor_id;sensor_type;location;lat;lon;timestamp;P1;durP1;ratioP1;P2;durP2;ratioP2
20203;SDS011;10261;49.010;12.034;2023-12-28T00:01:00;7.40;;;4.97;;
20203;SDS011;10261;49.010;12.034;2023-12-28T00:02:03;6.07;;;4.57;;
20203;SDS011;10261;49.010;12.034;2023-12-28T00:03:05;5.25;;;4.63;;
20203;SDS011;10261;49.010;12.034;2023-12-28T00:04:08;5.47;;;4.47;;
20203;SDS011;10261;49.010;12.034;2023-12-28T00:05:11;4.70;;;4.20;;
20203;SDS011;10261;49.010;12.034;2023-12-28T00:06:14;5.88;;;4.60;;
20203;SDS011;10261;49.010;12.034;2023-12-28T00:07:16;4.22;;;3.47;;
20203;SDS011;10261;49.010;12.034;2023-12-28T00:08:19;5.07;;;4.40;;
20203;SDS011;10261;49.010;12.034;2023-12-28T00:09:23;6.72;;;4.40;;
20203;SDS011;10261;49.010;12.034;2023-12-28T00:10:25;7.07;;;4.20;;
20203;SDS011;10261;49.010;12.034;2023-12-28T00:11:29;5.05;;;4.03;;
20203;SDS011;10261;49.010;12.034;2023-12-28T00:12:32;5.13;;;4.15;;
20203;SDS011;10261;49.010;12.034;2023-12-28T00:13:35;5.57;;;4.00;;
20203;SDS011;10261;49.010;12.034;2023-12-28T00:14:38;4.43;;;3.67;;
20203;SDS011;10261;49.010;12.034;2023-12-28T00:15:41;6.63;;;4.57;;
20203;SDS011;10261;49.010;12.034;2023-12-28T00:16:43;9.90;;;4.82;;
20203;SDS011;10261;49.010;12.034;2023-12-28T00:17:46;5.70;;;4.70;;
20203;SDS011;10261;49.010;12.034;2023-12-28T00:18:49;6.13;;;4.60;;
20203;SDS011;10261;49.010;12.034;2023-12-28T00:19:52;6.05;;;4.55;;
20203;SDS011;10261;49.010;12.034;2023-12-28T00:20:55;7.80;;;4.35;;
20203;SDS011;10261;49.010;12.034;2023-12-28T00:21:58;9.15;;;4.38;;
20203;SDS011;10261;49.010;12.034;2023-12-28T00:23:00;5.32;;;4.43;;
20203;SDS011;10261;49.010;12.034;2023-12-28T00:24:04;11.85;;;4.93;;
20203;SDS011;10261;49.010;12.034;2023-12-28T00:25:08;9.60;;;4.97;;
20203;SDS011;10261;49.010;12.034;2023-12-28T00:26:11;12.70;;;5.55;;
20203;SDS011;10261;49.010;12.034;2023-12-28T00:27:13;9.02;;;4.78;;
20203;SDS011;10261;49.010;12.034;2023-12-28T00:28:16;12.70;;;5.45;;
20203;SDS011;10261;49.010;12.034;2023-12-28T00:29:18;7.05;;;4.82;;
20203;SDS011;10261;49.010;12.034;2023-12-28T00:30:22;7.25;;;4.72;;
20203;SDS011;10261;49.010;12.034;2023-12-28T00:31:24;12.95;;;5.15;;
20203;SDS011;10261;49.010;12.034;2023-12-28T00:32:27;10.82;;;4.50;;
20203;SDS011;10261;49.010;12.034;2023-12-28T00:33:30;11.20;;;4.50;;
20203;SDS011;10261;49.010;12.034;2023-12-28T00:34:32;6.75;;;4.88;;
20203;SDS011;10261;49.010;12.034;2023-12-28T00:35:36;6.03;;;4.78;;
20203;SDS011;10261;49.010;12.034;2023-12-28T00:36:38;9.60;;;4.68;;
20203;SDS011;10261;49.010;12.034;2023-12-28T00:37:42;6.65;;;5.03;;
20203;SDS011;10261;49.010;12.034;2023-12-28T00:38:44;8.60;;;5.18;;
20203;SDS011;10261;49.010;12.034;2023-12-28T00:39:47;6.57;;;4.30;;
20203;SDS011;10261;49.010;12.034;2023-12-28T00:40:52;7.03;;;4.40;;
20203;SDS011;10261;49.010;12.034;2023-12-28T00:41:56;7.90;;;4.35;;
20203;SDS011;10261;49.010;12.034;2023-12-28T00:42:58;6.43;;;4.32;;
20203;SDS011;10261;49.010;12.034;2023-12-28T00:44:01;9.88;;;4.38;;
20203;SDS011;10261;49.010;12.034;2023-12-28T00:45:03;21.40;;;4.93;;
20203;SDS011;10261;49.010;12.034;2023-12-28T00:46:08;6.28;;;4.80;;
20203;SDS011;10261;49.010;12.034;2023-12-28T00:47:10;8.77;;;3.88;;
20203;SDS011;10261;49.010;12.034;2023-12-28T00:48:13;4.57;;;3.95;;
20203;SDS011;10261;49.010;12.034;2023-12-28T00:49:15;11.45;;;4.18;;
20203;SDS011;10261;49.010;12.034;2023-12-28T00:50:19;3.85;;;2.88;;
20203;SDS011;10261;49.010;12.034;2023-12-28T00:51:21;7.85;;;4.45;;
20203;SDS011;10261;49.010;12.034;2023-12-28T00:52:24;13.90;;;4.45;;
20203;SDS011;10261;49.010;12.034;2023-12-28T00:53:26;4.35;;;3.60;;
20203;SDS011;10261;49.010;12.034;2023-12-28T00:54:29;6.55;;;3.90;;
20203;SDS011;10261;49.010;12.034;2023-12-28T00:55:32;12.45;;;4.10;;
20203;SDS011;10261;49.010;12.034;2023-12-28T00:56:36;9.70;;;4.55;;
20203;SDS011;10261;49.010;12.034;2023-12-28T00:57:38;10.82;;;4.18;;
20203;SDS011;10261;49.010;12.034;2023-12-28T00:58:41;8.63;;;4.45;;
20203;SDS011;10261;49.010;12.034;2023-12-28T00:59:45;10.75;;;3.95;;
20203;SDS011;10261;49.010;12.034;2023-12-28T01:00:48;10.75;;;6.30;;
20203;SDS011;10261;49.010;12.034;2023-12-28T01:01:55;8.45;;;3.97;;
20203;SDS011;10261;49.010;12.034;2023-12-28T01:02:58;7.05;;;4.50;;
20203;SDS011;10261;49.010;12.034;2023-12-28T01:04:00;14.02;;;4.53;;
20203;SDS011;10261;49.010;12.034;2023-12-28T01:05:04;7.57;;;4.35;;
20203;SDS011;10261;49.010;12.034;2023-12-28T01:06:06;7.32;;;4.65;;
20203;SDS011;10261;49.010;12.034;2023-12-28T01:07:09;4.80;;;4.13;;
20203;SDS011;10261;49.010;12.034;2023-12-28T01:08:12;3.72;;;3.42;;
20203;SDS011;10261;49.010;12.034;2023-12-28T01:09:15;4.43;;;4.03;;
20203;SDS011;10261;49.010;12.034;2023-12-28T01:10:18;5.68;;;3.75;;
20203;SDS011;10261;49.010;12.034;2023-12-28T01:11:21;5.05;;;3.97;;
20203;SDS011;10261;49.010;12.034;2023-12-28T01:12:25;15.70;;;4.40;;
20203;SDS011;10261;49.010;12.034;2023-12-28T01:13:28;4.82;;;3.78;;
20203;SDS011;10261;49.010;12.034;2023-12-28T01:14:32;6.45;;;3.65;;
20203;SDS011;10261;49.010;12.034;2023-12-28T01:15:35;6.90;;;4.60;;
20203;SDS011;10261;49.010;12.034;2023-12-28T01:16:37;8.10;;;3.70;;
20203;SDS011;10261;49.010;12.034;2023-12-28T01:17:41;7.88;;;4.15;;
20203;SDS011;10261;49.010;12.034;2023-12-28T01:18:44;5.78;;;4.20;;
20203;SDS011;10261;49.010;12.034;2023-12-28T01:19:47;11.70;;;4.32;;
20203;SDS011;10261;49.010;12.034;2023-12-28T01:20:50;7.90;;;4.22;;
20203;SDS011;10261;49.010;12.034;2023-12-28T01:21:53;17.05;;;5.05;;
20203;SDS011;10261;49.010;12.034;2023-12-28T01:22:55;9.52;;;4.93;;
20203;SDS011;10261;49.010;12.034;2023-12-28T01:23:58;5.57;;;3.83;;
20203;SDS011;10261;49.010;12.034;2023-12-28T01:25:00;5.30;;;4.10;;
20203;SDS011;10261;49.010;12.034;2023-12-28T01:26:03;11.38;;;4.55;;
20203;SDS011;10261;49.010;12.034;2023-12-28T01:27:06;14.38;;;4.65;;
20203;SDS011;10261;49.010;12.034;2023-12-28T01:28:10;14.57;;;3.60;;
20203;SDS011;10261;49.010;12.034;2023-12-28T01:29:12;9.98;;;3.80;;
20203;SDS011;10261;49.010;12.034;2023-12-28T01:30:16;9.57;;;4.63;;
20203;SDS011;10261;49.010;12.034;2023-12-28T01:31:18;9.35;;;4.22;;
20203;SDS011;10261;49.010;12.034;2023-12-28T01:32:22;10.38;;;4.38;;
20203;SDS011;10261;49.010;12.034;2023-12-28T01:33:24;11.43;;;4.30;;
20203;SDS011;10261;49.010;12.034;2023-12-28T01:34:27;6.18;;;4.07;;
20203;SDS011;10261;49.010;12.034;2023-12-28T01:35:30;5.95;;;4.55;;
20203;SDS011;10261;49.010;12.034;2023-12-28T01:36:33;3.92;;;3.60;;
20203;SDS011;10261;49.010;12.034;2023-12-28T01:37:36;4.50;;;3.58;;
20203;SDS011;10261;49.010;12.034;2023-12-28T01:38:39;11.65;;;4.10;;
20203;SDS011;10261;49.010;12.034;2023-12-28T01:39:41;5.18;;;3.80;;
20203;SDS011;10261;49.010;12.034;2023-12-28T01:40:44;14.23;;;4.07;;
20203;SDS011;10261;49.010;12.034;2023-12-28T01:41:47;6.90;;;3.70;;
20203;SDS011;10261;49.010;12.034;2023-12-28T01:42:50;10.50;;;4.53;;
20203;SDS011;10261;49.010;12.034;2023-12-28T01:43:54;9.68;;;4.55;;
20203;SDS011;10261;49.010;12.034;2023-12-28T01:44:57;7.35;;;3.95;;
20203;SDS011;10261;49.010;12.034;2023-12-28T01:45:59;7.85;;;3.97;;
20203;SDS011;10261;49.010;12.034;2023-12-28T01:47:02;13.10;;;4.40;;
20203;SDS011;10261;49.010;12.034;2023-12-28T01:48:05;14.20;;;4.68;;
20203;SDS011;10261;49.010;12.034;2023-12-28T01:49:09;8.98;;;4.00;;
20203;SDS011;10261;49.010;12.034;2023-12-28T01:50:12;16.17;;;4.53;;
20203;SDS011;10261;49.010;12.034;2023-12-28T01:51:14;13.80;;;4.30;;
20203;SDS011;10261;49.010;12.034;2023-12-28T01:52:18;16.70;;;4.03;;
20203;SDS011;10261;49.010;12.034;2023-12-28T01:53:21;8.82;;;4.15;;
20203;SDS011;10261;49.010;12.034;2023-12-28T01:54:25;7.28;;;3.95;;
20203;SDS011;10261;49.010;12.034;2023-12-28T01:55:27;9.27;;;4.00;;
20203;SDS011;10261;49.010;12.034;2023-12-28T01:56:31;10.18;;;4.03;;
20203;SDS011;10261;49.010;12.034;2023-12-28T01:57:34;7.35;;;4.80;;
20203;SDS011;10261;49.010;12.034;2023-12-28T01:58:37;7.70;;;3.65;;
20203;SDS011;10261;49.010;12.034;2023-12-28T01:59:43;11.70;;;4.25;;
20203;SDS011;10261;49.010;12.034;2023-12-28T02:00:46;7.43;;;4.45;;
20203;SDS011;10261;49.010;12.034;2023-12-28T02:01:48;5.10;;;3.65;;
20203;SDS011;10261;49.010;12.034;2023-12-28T02:02:52;5.93;;;4.40;;
20203;SDS011;10261;49.010;12.034;2023-12-28T02:03:54;7.95;;;4.90;;
20203;SDS011;10261;49.010;12.034;2023-12-28T02:04:57;6.25;;;4.40;;
20203;SDS011;10261;49.010;12.034;2023-12-28T02:06:01;7.10;;;4.63;;
20203;SDS011;10261;49.010;12.034;2023-12-28T02:07:05;9.18;;;4.35;;
20203;SDS011;10261;49.010;12.034;2023-12-28T02:08:09;14.68;;;4.22;;
20203;SDS011;10261;49.010;12.034;2023-12-28T02:09:11;12.52;;;5.10;;
20203;SDS011;10261;49.010;12.034;2023-12-28T02:10:13;23.80;;;5.10;;
20203;SDS011;10261;49.010;12.034;2023-12-28T02:11:17;12.80;;;4.72;;
20203;SDS011;10261;49.010;12.034;2023-12-28T02:12:20;8.45;;;4.97;;
20203;SDS011;10261;49.010;12.034;2023-12-28T02:13:23;6.25;;;4.60;;
20203;SDS011;10261;49.010;12.034;2023-12-28T02:14:26;11.13;;;5.43;;
20203;SDS011;10261;49.010;12.034;2023-12-28T02:15:30;12.52;;;4.85;;
20203;SDS011;10261;49.010;12.034;2023-12-28T02:16:34;17.23;;;5.15;;
20203;SDS011;10261;49.010;12.034;2023-12-28T02:17:42;7.05;;;4.80;;
20203;SDS011;10261;49.010;12.034;2023-12-28T02:18:50;5.47;;;4.10;;
20203;SDS011;10261;49.010;12.034;2023-12-28T02:19:56;11.93;;;4.63;;
20203;SDS011;10261;49.010;12.034;2023-12-28T02:21:00;7.70;;;4.50;;
20203;SDS011;10261;49.010;12.034;2023-12-28T02:22:04;12.13;;;5.30;;
20203;SDS011;10261;49.010;12.034;2023-12-28T02:23:10;11.07;;;4.43;;
20203;SDS011;10261;49.010;12.034;2023-12-28T02:24:12;4.38;;;3.97;;
20203;SDS011;10261;49.010;12.034;2023-12-28T02:25:17;9.25;;;5.30;;
20203;SDS011;10261;49.010;12.034;2023-12-28T02:26:19;6.00;;;4.65;;
20203;SDS011;10261;49.010;12.034;2023-12-28T02:27:22;15.80;;;5.10;;
20203;SDS011;10261;49.010;12.034;2023-12-28T02:28:24;5.93;;;4.90;;
20203;SDS011;10261;49.010;12.034;2023-12-28T02:29:28;16.83;;;5.05;;
20203;SDS011;10261;49.010;12.034;2023-12-28T02:30:30;9.38;;;4.25;;
20203;SDS011;10261;49.010;12.034;2023-12-28T02:31:35;15.10;;;4.90;;
20203;SDS011;10261;49.010;12.034;2023-12-28T02:32:47;25.63;;;5.10;;
20203;SDS011;10261;49.010;12.034;2023-12-28T02:34:03;26.13;;;5.50;;
20203;SDS011;10261;49.010;12.034;2023-12-28T02:35:17;14.23;;;5.13;;
20203;SDS011;10261;49.010;12.034;2023-12-28T02:36:25;14.93;;;5.20;;
20203;SDS011;10261;49.010;12.034;2023-12-28T02:37:28;13.48;;;5.25;;
20203;SDS011;10261;49.010;12.034;2023-12-28T02:38:33;9.63;;;4.75;;
20203;SDS011;10261;49.010;12.034;2023-12-28T02:39:39;13.38;;;4.97;;
20203;SDS011;10261;49.010;12.034;2023-12-28T02:40:45;9.60;;;4.80;;
20203;SDS011;10261;49.010;12.034;2023-12-28T02:41:48;7.55;;;5.10;;
20203;SDS011;10261;49.010;12.034;2023-12-28T02:42:52;6.72;;;4.63;;
20203;SDS011;10261;49.010;12.034;2023-12-28T02:43:54;7.47;;;4.93;;
20203;SDS011;10261;49.010;12.034;2023-12-28T02:44:58;9.35;;;4.95;;
20203;SDS011;10261;49.010;12.034;2023-12-28T02:46:00;6.90;;;5.43;;
20203;SDS011;10261;49.010;12.034;2023-12-28T02:47:03;15.73;;;5.20;;
20203;SDS011;10261;49.010;12.034;2023-12-28T02:48:05;15.77;;;5.43;;
20203;SDS011;10261;49.010;12.034;2023-12-28T02:49:09;7.22;;;5.68;;
20203;SDS011;10261;49.010;12.034;2023-12-28T02:50:13;17.27;;;5.57;;
20203;SDS011;10261;49.010;12.034;2023-12-28T02:51:16;8.35;;;5.35;;
20203;SDS011;10261;49.010;12.034;2023-12-28T02:52:19;8.77;;;5.30;;
20203;SDS011;10261;49.010;12.034;2023-12-28T02:53:22;7.90;;;5.22;;
20203;SDS011;10261;49.010;12.034;2023-12-28T02:54:24;10.60;;;5.07;;
20203;SDS011;10261;49.010;12.034;2023-12-28T02:55:27;11.88;;;5.82;;
20203;SDS011;10261;49.010;12.034;2023-12-28T02:56:31;9.27;;;5.25;;
20203;SDS011;10261;49.010;12.034;2023-12-28T02:57:34;6.10;;;5.18;;
20203;SDS011;10261;49.010;12.034;2023-12-28T02:58:39;10.25;;;5.75;;
20203;SDS011;10261;49.010;12.034;2023-12-28T02:59:42;21.75;;;6.45;;
20203;SDS011;10261;49.010;12.034;2023-12-28T03:00:44;12.27;;;5.38;;
20203;SDS011;10261;49.010;12.034;2023-12-28T03:01:47;12.57;;;5.20;;
20203;SDS011;10261;49.010;12.034;2023-12-28T03:02:50;6.32;;;5.15;;
20203;SDS011;10261;49.010;12.034;2023-12-28T03:03:53;7.05;;;5.50;;
20203;SDS011;10261;49.010;12.034;2023-12-28T03:04:55;10.82;;;5.65;;
20203;SDS011;10261;49.010;12.034;2023-12-28T03:05:59;7.43;;;4.95;;
20203;SDS011;10261;49.010;12.034;2023-12-28T03:07:01;14.23;;;4.88;;
20203;SDS011;10261;49.010;12.034;2023-12-28T03:08:04;8.68;;;4.85;;
20203;SDS011;10261;49.010;12.034;2023-12-28T03:09:07;7.47;;;5.13;;
20203;SDS011;10261;49.010;12.034;2023-12-28T03:10:10;6.70;;;4.65;;
20203;SDS011;10261;49.010;12.034;2023-12-28T03:11:15;15.05;;;5.05;;
20203;SDS011;10261;49.010;12.034;2023-12-28T03:12:19;13.95;;;5.60;;
20203;SDS011;10261;49.010;12.034;2023-12-28T03:13:21;11.57;;;5.63;;
20203;SDS011;10261;49.010;12.034;2023-12-28T03:14:24;6.13;;;4.78;;
20203;SDS011;10261;49.010;12.034;2023-12-28T03:15:27;9.00;;;4.45;;
20203;SDS011;10261;49.010;12.034;2023-12-28T03:16:30;5.80;;;4.80;;
20203;SDS011;10261;49.010;12.034;2023-12-28T03:17:35;14.80;;;5.70;;
20203;SDS011;10261;49.010;12.034;2023-12-28T03:18:39;4.70;;;4.28;;
20203;SDS011;10261;49.010;12.034;2023-12-28T03:19:41;8.57;;;4.93;;
20203;SDS011;10261;49.010;12.034;2023-12-28T03:20:44;6.72;;;4.32;;
20203;SDS011;10261;49.010;12.034;2023-12-28T03:21:46;10.27;;;4.57;;
20203;SDS011;10261;49.010;12.034;2023-12-28T03:22:50;5.05;;;4.55;;
20203;SDS011;10261;49.010;12.034;2023-12-28T03:23:52;7.47;;;4.82;;
20203;SDS011;10261;49.010;12.034;2023-12-28T03:24:55;5.50;;;4.85;;
20203;SDS011;10261;49.010;12.034;2023-12-28T03:25:57;12.30;;;5.00;;
20203;SDS011;10261;49.010;12.034;2023-12-28T03:27:04;5.22;;;4.40;;
20203;SDS011;10261;49.010;12.034;2023-12-28T03:28:08;8.25;;;5.07;;
20203;SDS011;10261;49.010;12.034;2023-12-28T03:29:11;6.25;;;4.30;;
20203;SDS011;10261;49.010;12.034;2023-12-28T03:30:13;9.35;;;5.50;;
20203;SDS011;10261;49.010;12.034;2023-12-28T03:31:16;7.75;;;5.35;;
20203;SDS011;10261;49.010;12.034;2023-12-28T03:32:19;9.25;;;5.30;;
20203;SDS011;10261;49.010;12.034;2023-12-28T03:33:22;8.77;;;4.55;;
20203;SDS011;10261;49.010;12.034;2023-12-28T03:34:25;14.23;;;5.03;;
20203;SDS011;10261;49.010;12.034;2023-12-28T03:35:30;19.42;;;5.20;;
20203;SDS011;10261;49.010;12.034;2023-12-28T03:36:32;12.98;;;5.15;;
20203;SDS011;10261;49.010;12.034;2023-12-28T03:37:35;10.82;;;5.20;;
20203;SDS011;10261;49.010;12.034;2023-12-28T03:38:38;6.18;;;4.90;;
20203;SDS011;10261;49.010;12.034;2023-12-28T03:39:41;12.48;;;5.43;;
20203;SDS011;10261;49.010;12.034;2023-12-28T03:40:44;6.82;;;4.47;;
20203;SDS011;10261;49.010;12.034;2023-12-28T03:41:49;6.15;;;4.85;;
20203;SDS011;10261;49.010;12.034;2023-12-28T03:42:51;11.32;;;5.18;;
20203;SDS011;10261;49.010;12.034;2023-12-28T03:43:56;13.85;;;4.85;;
20203;SDS011;10261;49.010;12.034;2023-12-28T03:44:58;8.90;;;5.05;;
20203;SDS011;10261;49.010;12.034;2023-12-28T03:46:01;9.60;;;4.40;;
20203;SDS011;10261;49.010;12.034;2023-12-28T03:47:04;7.13;;;5.18;;
20203;SDS011;10261;49.010;12.034;2023-12-28T03:48:07;10.75;;;5.35;;
20203;SDS011;10261;49.010;12.034;2023-12-28T03:49:10;25.77;;;5.55;;
20203;SDS011;10261;49.010;12.034;2023-12-28T03:50:12;10.55;;;4.50;;
20203;SDS011;10261;49.010;12.034;2023-12-28T03:51:16;17.63;;;4.43;;
20203;SDS011;10261;49.010;12.034;2023-12-28T03:52:18;7.63;;;4.53;;
20203;SDS011;10261;49.010;12.034;2023-12-28T03:53:21;12.00;;;5.38;;
20203;SDS011;10261;49.010;12.034;2023-12-28T03:54:24;8.55;;;4.72;;
20203;SDS011;10261;49.010;12.034;2023-12-28T03:55:26;7.30;;;3.90;;
20203;SDS011;10261;49.010;12.034;2023-12-28T03:56:29;4.78;;;4.28;;
20203;SDS011;10261;49.010;12.034;2023-12-28T03:57:32;4.57;;;3.67;;
20203;SDS011;10261;49.010;12.034;2023-12-28T03:58:35;4.05;;;3.65;;
20203;SDS011;10261;49.010;12.034;2023-12-28T03:59:39;4.07;;;3.67;;
20203;SDS011;10261;49.010;12.034;2023-12-28T04:00:42;5.22;;;4.00;;
20203;SDS011;10261;49.010;12.034;2023-12-28T04:01:44;5.00;;;4.13;;
20203;SDS011;10261;49.010;12.034;2023-12-28T04:02:48;4.63;;;4.20;;
20203;SDS011;10261;49.010;12.034;2023-12-28T04:03:52;3.55;;;3.25;;
20203;SDS011;10261;49.010;12.034;2023-12-28T04:04:55;6.82;;;4.18;;
20203;SDS011;10261;49.010;12.034;2023-12-28T04:06:00;3.65;;;3.35;;
20203;SDS011;10261;49.010;12.034;2023-12-28T04:07:03;4.15;;;3.78;;
20203;SDS011;10261;49.010;12.034;2023-12-28T04:08:08;4.28;;;3.88;;
20203;SDS011;10261;49.010;12.034;2023-12-28T04:09:12;4.35;;;3.60;;
20203;SDS011;10261;49.010;12.034;2023-12-28T04:10:15;3.97;;;3.58;;
20203;SDS011;10261;49.010;12.034;2023-12-28T04:11:31;3.80;;;3.40;;
20203;SDS011;10261;49.010;12.034;2023-12-28T04:12:34;5.85;;;3.75;;
20203;SDS011;10261;49.010;12.034;2023-12-28T04:13:38;3.83;;;3.38;;
20203;SDS011;10261;49.010;12.034;2023-12-28T04:14:42;3.70;;;3.40;;
20203;SDS011;10261;49.010;12.034;2023-12-28T04:15:45;3.58;;;3.28;;
20203;SDS011;10261;49.010;12.034;2023-12-28T04:16:48;4.03;;;3.63;;
20203;SDS011;10261;49.010;12.034;2023-12-28T04:17:51;4.03;;;3.60;;
20203;SDS011;10261;49.010;12.034;2023-12-28T04:18:53;4.60;;;3.70;;
20203;SDS011;10261;49.010;12.034;2023-12-28T04:19:56;4.50;;;3.75;;
20203;SDS011;10261;49.010;12.034;2023-12-28T04:20:58;4.30;;;3.90;;
20203;SDS011;10261;49.010;12.034;2023-12-28T04:22:02;4.72;;;4.30;;
20203;SDS011;10261;49.010;12.034;2023-12-28T04:23:04;4.10;;;3.17;;
20203;SDS011;10261;49.010;12.034;2023-12-28T04:24:07;10.77;;;3.90;;
20203;SDS011;10261;49.010;12.034;2023-12-28T04:25:10;4.60;;;4.20;;
20203;SDS011;10261;49.010;12.034;2023-12-28T04:26:12;4.97;;;4.00;;
20203;SDS011;10261;49.010;12.034;2023-12-28T04:27:15;12.70;;;4.80;;
20203;SDS011;10261;49.010;12.034;2023-12-28T04:28:18;4.35;;;3.95;;
20203;SDS011;10261;49.010;12.034;2023-12-28T04:29:20;4.97;;;4.10;;
20203;SDS011;10261;49.010;12.034;2023-12-28T04:30:25;8.50;;;3.85;;
20203;SDS011;10261;49.010;12.034;2023-12-28T04:31:29;5.90;;;3.72;;
20203;SDS011;10261;49.010;12.034;2023-12-28T04:32:32;7.03;;;4.10;;
20203;SDS011;10261;49.010;12.034;2023-12-28T04:33:34;7.72;;;4.43;;
20203;SDS011;10261;49.010;12.034;2023-12-28T04:34:38;4.68;;;4.18;;
20203;SDS011;10261;49.010;12.034;2023-12-28T04:35:40;4.20;;;3.80;;
20203;SDS011;10261;49.010;12.034;2023-12-28T04:36:43;3.63;;;3.30;;
20203;SDS011;10261;49.010;12.034;2023-12-28T04:37:48;4.20;;;3.80;;
20203;SDS011;10261;49.010;12.034;2023-12-28T04:38:50;7.10;;;3.90;;
20203;SDS011;10261;49.010;12.034;2023-12-28T04:39:53;5.47;;;3.90;;
20203;SDS011;10261;49.010;12.034;2023-12-28T04:40:56;4.85;;;3.97;;
20203;SDS011;10261;49.010;12.034;2023-12-28T04:41:59;6.10;;;3.92;;
20203;SDS011;10261;49.010;12.034;2023-12-28T04:43:01;4.75;;;3.65;;
20203;SDS011;10261;49.010;12.034;2023-12-28T04:44:04;9.93;;;3.92;;
20203;SDS011;10261;49.010;12.034;2023-12-28T04:45:06;7.28;;;4.43;;
20203;SDS011;10261;49.010;12.034;2023-12-28T04:46:12;5.00;;;4.10;;
20203;SDS011;10261;49.010;12.034;2023-12-28T04:47:14;4.25;;;3.83;;
20203;SDS011;10261;49.010;12.034;2023-12-28T04:48:18;4.88;;;4.47;;
20203;SDS011;10261;49.010;12.034;2023-12-28T04:49:22;4.38;;;3.72;;
20203;SDS011;10261;49.010;12.034;2023-12-28T04:50:25;4.90;;;4.30;;
20203;SDS011;10261;49.010;12.034;2023-12-28T04:51:28;4.78;;;4.28;;
20203;SDS011;10261;49.010;12.034;2023-12-28T04:52:31;4.15;;;3.75;;
20203;SDS011;10261;49.010;12.034;2023-12-28T04:53:33;4.75;;;4.30;;
20203;SDS011;10261;49.010;12.034;2023-12-28T04:54:39;4.60;;;4.18;;
20203;SDS011;10261;49.010;12.034;2023-12-28T04:55:42;4.55;;;4.13;;
20203;SDS011;10261;49.010;12.034;2023-12-28T04:56:45;4.50;;;4.10;;
20203;SDS011;10261;49.010;12.034;2023-12-28T04:57:47;4.13;;;3.70;;
20203;SDS011;10261;49.010;12.034;2023-12-28T04:58:50;3.80;;;3.50;;
20203;SDS011;10261;49.010;12.034;2023-12-28T04:59:52;4.35;;;3.95;;
20203;SDS011;10261;49.010;12.034;2023-12-28T05:00:56;6.45;;;3.65;;
20203;SDS011;10261;49.010;12.034;2023-12-28T05:01:59;4.32;;;3.92;;
20203;SDS011;10261;49.010;12.034;2023-12-28T05:03:03;4.15;;;3.35;;
20203;SDS011;10261;49.010;12.034;2023-12-28T05:04:06;4.00;;;3.65;;
20203;SDS011;10261;49.010;12.034;2023-12-28T05:05:11;3.58;;;3.25;;
20203;SDS011;10261;49.010;12.034;2023-12-28T05:06:13;3.55;;;3.25;;
20203;SDS011;10261;49.010;12.034;2023-12-28T05:07:16;3.50;;;3.20;;
20203;SDS011;10261;49.010;12.034;2023-12-28T05:08:19;4.43;;;4.03;;
20203;SDS011;10261;49.010;12.034;2023-12-28T05:09:22;3.65;;;3.35;;
20203;SDS011;10261;49.010;12.034;2023-12-28T05:10:24;3.72;;;3.30;;
20203;SDS011;10261;49.010;12.034;2023-12-28T05:11:28;7.30;;;4.10;;
20203;SDS011;10261;49.010;12.034;2023-12-28T05:12:30;4.22;;;3.83;;
20203;SDS011;10261;49.010;12.034;2023-12-28T05:13:44;4.10;;;3.65;;
20203;SDS011;10261;49.010;12.034;2023-12-28T05:14:46;4.30;;;3.75;;
20203;SDS011;10261;49.010;12.034;2023-12-28T05:15:49;4.18;;;3.78;;
20203;SDS011;10261;49.010;12.034;2023-12-28T05:16:51;4.07;;;3.78;;
20203;SDS011;10261;49.010;12.034;2023-12-28T05:17:56;4.10;;;3.70;;
20203;SDS011;10261;49.010;12.034;2023-12-28T05:18:59;4.82;;;3.67;;
20203;SDS011;10261;49.010;12.034;2023-12-28T05:20:03;4.07;;;3.65;;
20203;SDS011;10261;49.010;12.034;2023-12-28T05:21:06;4.32;;;3.92;;
20203;SDS011;10261;49.010;12.034;2023-12-28T05:22:09;4.00;;;3.45;;
20203;SDS011;10261;49.010;12.034;2023-12-28T05:23:12;3.88;;;3.50;;
20203;SDS011;10261;49.010;12.034;2023-12-28T05:24:15;4.03;;;3.25;;
20203;SDS011;10261;49.010;12.034;2023-12-28T05:25:18;3.88;;;3.40;;
20203;SDS011;10261;49.010;12.034;2023-12-28T05:26:21;4.75;;;4.05;;
20203;SDS011;10261;49.010;12.034;2023-12-28T05:27:24;3.67;;;3.35;;
20203;SDS011;10261;49.010;12.034;2023-12-28T05:28:27;4.35;;;3.95;;
20203;SDS011;10261;49.010;12.034;2023-12-28T05:29:29;4.53;;;4.03;;
20203;SDS011;10261;49.010;12.034;2023-12-28T05:30:31;5.05;;;4.15;;
20203;SDS011;10261;49.010;12.034;2023-12-28T05:31:35;4.10;;;3.70;;
20203;SDS011;10261;49.010;12.034;2023-12-28T05:32:38;3.85;;;3.45;;
20203;SDS011;10261;49.010;12.034;2023-12-28T05:33:42;4.40;;;3.97;;
20203;SDS011;10261;49.010;12.034;2023-12-28T05:34:44;3.60;;;3.30;;
20203;SDS011;10261;49.010;12.034;2023-12-28T05:35:49;4.05;;;3.65;;
20203;SDS011;10261;49.010;12.034;2023-12-28T05:36:51;3.78;;;3.38;;
20203;SDS011;10261;49.010;12.034;2023-12-28T05:37:55;4.15;;;3.65;;
20203;SDS011;10261;49.010;12.034;2023-12-28T05:38:57;4.07;;;3.40;;
20203;SDS011;10261;49.010;12.034;2023-12-28T05:40:00;4.50;;;3.97;;
20203;SDS011;10261;49.010;12.034;2023-12-28T05:41:03;3.85;;;3.55;;
20203;SDS011;10261;49.010;12.034;2023-12-28T05:42:06;3.53;;;3.20;;
20203;SDS011;10261;49.010;12.034;2023-12-28T05:43:08;4.18;;;3.50;;
20203;SDS011;10261;49.010;12.034;2023-12-28T05:44:11;5.18;;;3.88;;
20203;SDS011;10261;49.010;12.034;2023-12-28T05:45:13;4.35;;;3.58;;
20203;SDS011;10261;49.010;12.034;2023-12-28T05:46:16;4.30;;;3.42;;
20203;SDS011;10261;49.010;12.034;2023-12-28T05:47:19;4.10;;;3.53;;
20203;SDS011;10261;49.010;12.034;2023-12-28T05:48:22;3.58;;;3.28;;
20203;SDS011;10261;49.010;12.034;2023-12-28T05:49:25;3.30;;;3.00;;
20203;SDS011;10261;49.010;12.034;2023-12-28T05:50:30;3.85;;;3.55;;
20203;SDS011;10261;49.010;12.034;2023-12-28T05:51:36;4.40;;;4.07;;
20203;SDS011;10261;49.010;12.034;2023-12-28T05:52:41;4.07;;;3.53;;
20203;SDS011;10261;49.010;12.034;2023-12-28T05:53:43;4.30;;;3.90;;
20203;SDS011;10261;49.010;12.034;2023-12-28T05:54:47;4.38;;;3.95;;
20203;SDS011;10261;49.010;12.034;2023-12-28T05:55:49;5.30;;;3.83;;
20203;SDS011;10261;49.010;12.034;2023-12-28T05:56:53;4.10;;;3.70;;
20203;SDS011;10261;49.010;12.034;2023-12-28T05:57:55;4.60;;;4.18;;
20203;SDS011;10261;49.010;12.034;2023-12-28T05:58:59;4.85;;;4.03;;
20203;SDS011;10261;49.010;12.034;2023-12-28T06:00:01;4.00;;;3.63;;
20203;SDS011;10261;49.010;12.034;2023-12-28T06:01:05;3.78;;;3.40;;
20203;SDS011;10261;49.010;12.034;2023-12-28T06:02:09;5.30;;;4.80;;
20203;SDS011;10261;49.010;12.034;2023-12-28T06:03:11;8.32;;;6.85;;
20203;SDS011;10261;49.010;12.034;2023-12-28T06:04:14;7.72;;;6.97;;
20203;SDS011;10261;49.010;12.034;2023-12-28T06:05:18;6.03;;;5.25;;
20203;SDS011;10261;49.010;12.034;2023-12-28T06:06:21;5.47;;;5.00;;
20203;SDS011;10261;49.010;12.034;2023-12-28T06:07:23;6.78;;;6.07;;
20203;SDS011;10261;49.010;12.034;2023-12-28T06:08:27;9.00;;;3.70;;
20203;SDS011;10261;49.010;12.034;2023-12-28T06:09:29;4.82;;;4.43;;
20203;SDS011;10261;49.010;12.034;2023-12-28T06:10:31;4.20;;;3.80;;
20203;SDS011;10261;49.010;12.034;2023-12-28T06:11:34;6.78;;;3.90;;
20203;SDS011;10261;49.010;12.034;2023-12-28T06:12:36;4.65;;;3.67;;
20203;SDS011;10261;49.010;12.034;2023-12-28T06:13:39;3.75;;;3.28;;
20203;SDS011;10261;49.010;12.034;2023-12-28T06:14:42;3.90;;;3.30;;